Time;durP1;ratioP1;P1;durP2;ratioP2;P2;SDS_P1;SDS_P2;PMS_P1;PMS_P2;Temp;Humidity;BMP_temperature;BMP_pressure;BME280_temperature;BME280_humidity;BME280_pressure;Samples;Min_cycle;Max_cycle;Signal;HPM_P1;HPM_P2
2023/11/08 00:00:38;;;;;;;3.53;1.50;;;;;;;-144.05;67.91;56955.03;5010130;28;20026;-77
2023/11/08 00:03:04;;;;;;;5.70;1.35;;;;;;;-144.05;68.94;56980.53;5011090;28;20108;-77
2023/11/08 00:05:31;;;;;;;4.78;1.55;;;;;;;-144.05;68.22;56963.53;5013824;28;20453;-78
2023/11/08 00:07:57;;;;;;;5.72;1.48;;;;;;;-144.05;68.49;56986.91;5013989;28;20045;-79
2023/11/08 00:10:23;;;;;;;4.78;1.38;;;;;;;-144.05;68.50;56967.78;5013651;28;20036;-76
2023/11/08 00:12:50;;;;;;;2.63;1.38;;;;;;;-144.05;68.20;56978.41;5013841;28;20471;-75
2023/11/08 00:15:16;;;;;;;7.40;1.30;;;;;;;-144.05;68.06;56972.03;5007077;28;20173;-76
2023/11/08 00:17:42;;;;;;;3.78;1.38;;;;;;;-144.05;68.62;56972.03;5006480;28;20065;-78
2023/11/08 00:20:10;;;;;;;6.20;1.52;;;;;;;-144.05;68.88;56969.91;5014043;28;20033;-78
2023/11/08 00:22:37;;;;;;;3.08;1.40;;;9.10;99.90;;;-144.05;68.96;56955.03;5013873;28;20037;-79
2023/11/08 00:25:04;;;;;;;4.68;1.65;;;;;;;-144.05;69.33;56997.50;5009053;28;20030;-78
2023/11/08 00:27:31;;;;;;;4.32;1.40;;;8.70;99.90;;;-144.05;68.68;56980.53;4994384;28;20022;-78
2023/11/08 00:29:57;;;;;;;4.00;1.65;;;;;;;-144.05;68.84;56986.91;4996008;28;20030;-79
2023/11/08 00:32:24;;;;;;;8.25;2.00;;;;;;;-144.05;69.41;56963.53;5013492;28;20022;-79
2023/11/08 00:34:51;;;;;;;4.10;1.33;;;;;;;-144.05;69.58;56995.38;5006246;28;20026;-79
2023/11/08 00:37:20;;;;;;;4.10;2.20;;;;;;;-144.05;69.29;56972.03;5013615;28;20471;-79
2023/11/08 00:39:47;;;;;;;4.28;1.40;;;8.60;99.90;;;-144.05;69.85;56980.53;5012328;28;20137;-78
2023/11/08 00:42:14;;;;;;;2.85;1.23;;;;;;;-144.05;70.25;56986.91;5013535;28;20036;-78
2023/11/08 00:44:41;;;;;;;6.22;1.27;;;;;;;-144.05;69.82;56946.53;5013150;28;20034;-76
2023/11/08 00:47:08;;;;;;;4.30;1.30;;;;;;;-144.05;69.82;56978.41;4995681;28;20526;-80
2023/11/08 00:49:35;;;;;;;3.83;1.30;;;;;;;-144.05;69.78;57018.75;5012816;28;20402;-78
2023/11/08 00:52:03;;;;;;;3.80;1.48;;;;;;;-144.05;70.31;56965.66;5013252;28;20448;-78
2023/11/08 00:54:33;;;;;;;5.45;1.40;;;;;;;-144.05;70.50;56999.63;4995751;28;20033;-78
2023/11/08 00:57:00;;;;;;;5.10;1.30;;;;;;;-144.05;70.36;56993.25;5012942;28;20538;-79
2023/11/08 00:59:26;;;;;;;5.80;1.42;;;;;;;-144.05;70.73;56982.66;5012941;28;20087;-78
2023/11/08 01:01:53;;;;;;;6.88;1.30;;;;;;;-144.05;71.56;56999.63;5013227;28;20026;-78
2023/11/08 01:04:19;;;;;;;4.97;1.92;;;;;;;-144.05;71.62;56972.03;5013061;28;20029;-79
2023/11/08 01:06:46;;;;;;;3.17;1.15;;;;;;;-144.05;71.06;57008.13;5012776;28;20479;-78
2023/11/08 01:09:14;;;;;;;5.25;1.40;;;;;;;-144.05;71.18;57012.38;5013007;28;20108;-78
2023/11/08 01:11:42;;;;;;;6.15;1.75;;;;;;;-144.05;72.28;57001.75;5012640;28;20038;-79
2023/11/08 01:14:08;;;;;;;3.20;1.83;;;;;;;-144.05;72.22;56986.91;4994918;28;20084;-77
2023/11/08 01:16:35;;;;;;;3.78;1.27;;;;;;;-144.05;72.17;57012.38;5012023;28;20037;-78
2023/11/08 01:19:02;;;;;;;3.80;1.33;;;;;;;-144.05;72.07;57008.13;5012805;28;20095;-77
2023/11/08 01:21:28;;;;;;;6.00;1.70;;;;;;;-144.05;72.26;56976.28;5012732;28;20467;-78
2023/11/08 01:23:54;;;;;;;6.32;1.50;;;;;;;-144.05;71.46;57010.25;5012599;28;20030;-78
2023/11/08 01:26:21;;;;;;;8.90;1.58;;;;;;;-144.05;71.73;56976.28;5005836;28;20570;-77
2023/11/08 01:28:47;;;;;;;5.28;1.10;;;;;;;-144.05;71.37;56984.78;5011566;28;20045;-78
2023/11/08 01:31:13;;;;;;;1.67;0.88;;;;;;;-144.05;71.01;56959.28;5013145;28;20128;-78
2023/11/08 01:33:39;;;;;;;7.80;1.50;;;;;;;-144.05;71.23;56978.41;5012243;28;20072;-78
2023/11/08 01:36:06;;;;;;;3.05;1.45;;;;;;;-144.05;71.29;56967.78;5013346;28;20022;-78
2023/11/08 01:38:32;;;;;;;3.28;1.42;;;;;;;-144.05;71.26;56948.66;5012648;28;20030;-77
2023/11/08 01:40:58;;;;;;;3.58;1.10;;;;;;;-144.05;71.89;56974.16;5012445;28;20121;-80
2023/11/08 01:43:34;;;;;;;2.65;1.45;;;9.00;99.90;;;-144.05;70.93;56978.41;5006013;28;20487;-79
2023/11/08 01:46:15;;;;;;;2.42;1.40;;;;;;;-144.05;70.98;56963.53;5006332;28;20064;-78
2023/11/08 01:48:42;;;;;;;3.47;1.10;;;;;;;-144.05;71.06;56978.41;5012439;28;20037;-78
2023/11/08 01:51:10;;;;;;;6.20;1.60;;;;;;;-144.05;71.60;57001.75;5012325;28;20034;-79
2023/11/08 01:53:42;;;;;;;6.55;1.42;;;7.90;99.90;;;-144.05;71.59;56978.41;5011787;28;20526;-79
2023/11/08 01:56:10;;;;;;;3.65;1.27;;;;;;;-144.05;71.25;56967.78;5012783;28;20040;-77
2023/11/08 01:58:38;;;;;;;7.70;1.63;;;;;;;-144.05;71.40;56980.53;5012601;28;20033;-78
2023/11/08 02:01:10;;;;;;;6.80;1.45;;;;;;;-144.05;71.34;56986.91;5013053;28;20467;-77
2023/11/08 02:03:39;;;;;;;1.95;1.10;;;8.70;99.90;;;-144.05;71.27;56980.53;5013295;28;20473;-78
2023/11/08 02:06:08;;;;;;;2.90;1.35;;;8.90;99.90;;;-144.05;71.92;56980.53;5012650;28;20030;-79
2023/11/08 02:08:35;;;;;;;4.18;1.55;;;8.90;99.90;;;-144.05;72.36;56997.50;5012236;28;20038;-78
2023/11/08 02:11:03;;;;;;;5.07;1.40;;;;;;;-144.05;72.53;56969.91;5007991;28;20096;-79
2023/11/08 02:13:33;;;;;;;4.13;1.33;;;;;;;-144.05;72.54;56969.91;5009714;28;20034;-80
2023/11/08 02:16:00;;;;;;;3.20;1.33;;;;;;;-144.05;72.67;57003.88;5005789;28;20030;-77
2023/11/08 02:18:26;;;;;;;2.60;1.40;;;;;;;-144.05;72.80;56959.28;5012459;28;20049;-78
2023/11/08 02:20:54;;;;;;;5.63;1.40;;;8.90;99.90;;;-144.05;73.00;56997.50;5012772;28;20066;-80
2023/11/08 02:23:21;;;;;;;4.28;1.35;;;;;;;-144.05;73.09;56995.38;5011609;28;20037;-79
2023/11/08 02:25:47;;;;;;;4.13;1.52;;;;;;;-144.05;73.01;56965.66;5009818;28;20112;-79
2023/11/08 02:28:13;;;;;;;6.03;1.30;;;;;;;-144.05;72.32;56989.00;4993637;28;20041;-80
2023/11/08 02:30:40;;;;;;;3.72;1.40;;;;;;;-144.05;73.28;57006.00;4993798;28;20418;-77
2023/11/08 02:33:08;;;;;;;4.68;1.50;;;9.00;99.90;;;-144.05;72.00;56976.28;5011739;28;20033;-77
2023/11/08 02:35:34;;;;;;;6.28;1.55;;;;;;;-144.05;71.96;56957.16;5012708;28;20026;-76
2023/11/08 02:38:00;;;;;;;3.75;1.52;;;;;;;-144.05;71.91;57006.00;5002722;28;20130;-79
2023/11/08 02:40:27;;;;;;;4.28;1.25;;;;;;;-144.05;72.06;56978.41;5008704;28;20034;-77
2023/11/08 02:42:53;;;;;;;4.03;1.45;;;;;;;-144.05;71.84;56995.38;5012052;28;20038;-78
2023/11/08 02:45:21;;;;;;;4.78;1.75;;;;;;;-144.05;71.81;56980.53;5011740;28;20117;-79
2023/11/08 02:47:47;;;;;;;10.05;1.58;;;;;;;-144.05;72.00;56974.16;5012263;28;20033;-81
2023/11/08 02:50:13;;;;;;;6.25;2.13;;;;;;;-144.05;71.91;56976.28;5011418;28;20030;-80
2023/11/08 02:52:40;;;;;;;8.45;1.50;;;;;;;-144.05;72.08;56972.03;5011281;28;20030;-80
2023/11/08 02:55:06;;;;;;;4.57;1.30;;;;;;;-144.05;72.91;56980.53;5007122;28;20026;-79
2023/11/08 02:57:32;;;;;;;5.25;1.80;;;;;;;-144.05;73.60;56978.41;5009353;28;20260;-79
2023/11/08 03:00:03;;;;;;;6.53;1.67;;;;;;;-144.05;73.77;56967.78;5010656;28;20076;-78
2023/11/08 03:02:33;;;;;;;4.93;1.50;;;;;;;-144.05;73.79;56972.03;5011033;28;20026;-79
2023/11/08 03:05:00;;;;;;;4.10;1.75;;;;;;;-144.05;74.19;56982.66;5010892;28;20080;-79
2023/11/08 03:07:27;;;;;;;3.75;1.52;;;;;;;-144.05;73.44;56993.25;5010990;28;20029;-75
2023/11/08 03:09:53;;;;;;;8.15;1.48;;;;;;;-144.05;73.64;56967.78;5010803;28;20026;-77
2023/11/08 03:12:19;;;;;;;5.47;1.50;;;;;;;-144.05;73.79;56974.16;5004733;28;20177;-81
2023/11/08 03:14:45;;;;;;;4.65;1.52;;;;;;;-144.05;73.48;56980.53;5010398;28;20042;-80
2023/11/08 03:17:12;;;;;;;4.75;1.17;;;;;;;-144.05;73.40;56995.38;5011112;28;20026;-79
2023/11/08 03:19:38;;;;;;;6.57;1.33;;;;;;;-144.05;73.15;56999.63;5011113;28;20122;-79
2023/11/08 03:22:05;;;;;;;5.75;1.17;;;9.50;99.90;;;-144.05;73.20;57016.63;4994828;28;20028;-78
2023/11/08 03:24:31;;;;;;;6.70;1.60;;;;;;;-144.05;73.43;56978.41;5011151;28;20402;-78
2023/11/08 03:26:57;;;;;;;4.07;1.20;;;;;;;-144.05;73.13;57003.88;5010778;28;20041;-78
2023/11/08 03:29:24;;;;;;;6.88;1.52;;;;;;;-144.05;72.43;56974.16;5012568;28;20030;-77
2023/11/08 03:31:50;;;;;;;4.90;1.20;;;;;;;-144.05;73.07;56982.66;5005818;28;20499;-78
2023/11/08 03:34:17;;;;;;;3.72;1.38;;;;;;;-144.05;73.83;56976.28;5006365;28;20034;-78
2023/11/08 03:36:43;;;;;;;7.30;1.27;;;;;;;-144.05;73.37;56965.66;5011253;28;20040;-79
2023/11/08 03:39:10;;;;;;;6.07;1.42;;;;;;;-144.05;72.93;56935.91;5013850;28;20033;-80
2023/11/08 03:41:36;;;;;;;5.22;1.30;;;;;;;-144.05;73.09;56955.03;5015078;28;20029;-79
2023/11/08 03:44:03;;;;;;;5.68;1.20;;;;;;;-144.05;73.85;57014.50;5009606;28;20434;-80
2023/11/08 03:46:30;;;;;;;3.83;1.38;;;;;;;-144.05;74.94;57006.00;5008817;28;20078;-82
2023/11/08 03:48:58;;;;;;;4.00;1.35;;;;;;;-144.05;75.75;56965.66;5008910;28;20028;-80
2023/11/08 03:51:26;;;;;;;5.82;1.67;;;;;;;-144.05;76.35;56944.41;5020194;28;20037;-79
2023/11/08 03:53:52;;;;;;;4.28;1.92;;;;;;;-144.05;76.69;56995.38;5029905;28;20022;-80
2023/11/08 03:56:19;;;;;;;5.68;2.00;;;;;;;-144.05;76.99;56991.13;5015201;28;20021;-78
2023/11/08 03:58:50;;;;;;;7.93;1.80;;;8.50;99.90;;;-144.05;77.34;56993.25;5031608;28;20025;-78
2023/11/08 04:01:17;;;;;;;5.80;1.38;;;;;;;-144.05;76.88;56989.00;5018113;28;20042;-78
2023/11/08 04:03:43;;;;;;;5.57;1.60;;;;;;;-144.05;77.03;56976.28;5008322;28;20029;-82
2023/11/08 04:06:09;;;;;;;6.18;1.58;;;;;;;-144.05;77.42;56965.66;5013937;28;20026;-80
2023/11/08 04:08:35;;;;;;;7.35;1.90;;;;;;;-144.05;77.70;56969.91;5013590;28;20495;-79
2023/11/08 04:11:02;;;;;;;5.45;1.80;;;;;;;-144.05;76.97;56976.28;5013659;28;20116;-77
2023/11/08 04:13:28;;;;;;;5.45;1.58;;;;;;;-144.05;76.93;56961.41;5013960;28;20026;-79
2023/11/08 04:15:56;;;;;;;4.53;1.63;;;;;;;-144.05;77.17;56967.78;4996105;28;20049;-81
2023/11/08 04:18:22;;;;;;;3.15;1.50;;;;;;;-144.05;76.79;56957.16;4990450;28;20030;-79
2023/11/08 04:20:48;;;;;;;4.13;1.55;;;;;;;-144.05;77.08;56991.13;5012857;28;20076;-80
2023/11/08 04:23:15;;;;;;;4.57;1.70;;;;;;;-144.05;76.64;56997.50;5009281;28;20075;-79
2023/11/08 04:25:44;;;;;;;5.50;1.58;;;;;;;-144.05;76.54;56965.66;5013276;28;20052;-80
2023/11/08 04:28:10;;;;;;;1.98;1.25;;;;;;;-144.05;76.61;56974.16;5013451;28;20030;-76
2023/11/08 04:30:36;;;;;;;3.25;1.05;;;;;;;-144.05;77.15;56991.13;5013293;28;20064;-81
2023/11/08 04:33:03;;;;;;;4.93;1.50;;;;;;;-144.05;77.06;56999.63;5013327;28;20021;-80
2023/11/08 04:35:29;;;;;;;3.85;1.20;;;;;;;-144.05;77.58;56959.28;5013385;28;20068;-79
2023/11/08 04:37:55;;;;;;;3.95;1.85;;;;;;;-144.05;77.95;56963.53;5013183;28;20037;-79
2023/11/08 04:40:22;;;;;;;4.07;1.70;;;;;;;-144.05;77.94;56989.00;5013182;28;20057;-78
2023/11/08 04:42:48;;;;;;;5.25;1.52;;;;;;;-144.05;77.76;56997.50;5013304;28;20030;-79
2023/11/08 04:45:14;;;;;;;2.42;1.60;;;;;;;-144.05;77.88;56978.41;5007687;28;20052;-80
2023/11/08 04:47:41;;;;;;;5.70;1.60;;;;;;;-144.05;77.54;56991.13;5013102;28;20079;-80
2023/11/08 04:50:08;;;;;;;4.22;1.35;;;;;;;-144.05;77.31;56984.78;5015200;28;20025;-79
2023/11/08 04:52:34;;;;;;;5.45;1.55;;;;;;;-144.05;77.46;56978.41;5013719;28;20467;-81
2023/11/08 04:55:00;;;;;;;2.67;1.45;;;;;;;-144.05;76.96;56997.50;5013011;28;20038;-79
2023/11/08 04:57:27;;;;;;;3.20;1.20;;;;;;;-144.05;77.55;56984.78;5013121;28;20096;-80
2023/11/08 04:59:53;;;;;;;5.60;1.33;;;;;;;-144.05;76.88;57006.00;4989744;28;20033;-80
2023/11/08 05:02:20;;;;;;;4.85;1.33;;;;;;;-144.05;76.79;56995.38;4995174;28;20022;-80
2023/11/08 05:04:48;;;;;;;2.20;1.25;;;;;;;-144.05;76.97;57001.75;5009853;28;20520;-79
2023/11/08 05:07:19;;;;;;;6.32;1.48;;;;;;;-144.05;76.61;57008.13;5012663;28;20021;-79
2023/11/08 05:09:46;;;;;;;2.78;1.15;;;;;;;-144.05;76.77;56993.25;5012639;28;20032;-77
2023/11/08 05:12:12;;;;;;;2.97;1.02;;;;;;;-144.05;76.41;56989.00;5007579;28;20029;-80
2023/11/08 05:14:39;;;;;;;6.25;1.88;;;;;;;-144.05;76.39;56978.41;5012355;28;20105;-79
2023/11/08 05:17:06;;;;;;;4.05;1.60;;;;;;;-144.05;76.61;56995.38;5013495;28;20442;-78
2023/11/08 05:19:32;;;;;;;10.27;1.50;;;;;;;-144.05;76.54;56952.91;4995810;28;20022;-81
2023/11/08 05:21:59;;;;;;;4.80;1.63;;;;;;;-144.05;76.15;57010.25;5013601;28;20540;-80
2023/11/08 05:24:25;;;;;;;7.78;1.65;;;;;;;-144.05;76.15;56961.41;5013608;28;20084;-80
2023/11/08 05:26:52;;;;;;;6.57;1.50;;;;;;;-144.05;76.29;56950.78;5013368;28;20084;-79
2023/11/08 05:29:18;;;;;;;3.75;1.50;;;;;;;-144.05;76.15;56976.28;5013527;28;20375;-79
2023/11/08 05:31:45;;;;;;;3.65;1.70;;;;;;;-144.05;76.52;57023.00;5013443;28;20028;-79
2023/11/08 05:34:12;;;;;;;4.68;1.60;;;;;;;-144.05;75.83;56986.91;5009551;28;20026;-79
2023/11/08 05:36:38;;;;;;;7.50;1.48;;;;;;;-144.05;75.77;57001.75;5007100;28;20053;-79
2023/11/08 05:39:04;;;;;;;3.13;1.40;;;8.60;99.90;;;-144.05;76.49;56993.25;5013465;28;20368;-79
2023/11/08 05:41:31;;;;;;;4.63;1.60;;;;;;;-144.05;75.57;56967.78;5013160;28;20096;-78
2023/11/08 05:43:58;;;;;;;5.57;1.48;;;;;;;-144.05;76.05;56995.38;5013264;28;20032;-77
2023/11/08 05:46:28;;;;;;;6.32;2.00;;;8.50;99.90;;;-144.05;75.28;57003.88;5012807;28;20026;-80
2023/11/08 05:48:58;;;;;;;2.35;1.30;;;8.30;99.90;;;-144.05;74.81;56980.53;5012887;28;20104;-79
2023/11/08 05:51:27;;;;;;;5.65;1.95;;;;;;;-144.05;74.89;56993.25;5012760;28;20034;-78
2023/11/08 05:53:54;;;;;;;3.33;1.40;;;;;;;-144.05;75.04;56999.63;5011717;28;20026;-78
2023/11/08 05:56:20;;;;;;;9.00;1.55;;;;;;;-144.05;75.05;57003.88;4991925;28;20487;-80
2023/11/08 05:58:47;;;;;;;3.40;1.58;;;;;;;-144.05;74.83;57003.88;5008668;28;20056;-78
2023/11/08 06:01:20;;;;;;;3.83;1.55;;;;;;;-144.05;75.21;56980.53;4991176;28;20033;-79
2023/11/08 06:03:46;;;;;;;7.15;1.73;;;;;;;-144.05;74.84;56972.03;5012687;28;20430;-80
2023/11/08 06:06:13;;;;;;;4.50;1.40;;;;;;;-144.05;74.82;56948.66;5012546;28;20036;-78
2023/11/08 06:08:40;;;;;;;5.10;1.65;;;;;;;-144.05;74.35;56984.78;5012741;28;20029;-79
2023/11/08 06:11:06;;;;;;;4.93;1.88;;;;;;;-144.05;74.27;56984.78;5009503;28;20134;-78
2023/11/08 06:13:35;;;;;;;4.25;1.42;;;;;;;-144.05;74.43;56980.53;5010737;28;20049;-80
2023/11/08 06:16:02;;;;;;;7.90;1.90;;;;;;;-144.05;75.00;56984.78;5012937;28;20208;-79
2023/11/08 06:18:30;;;;;;;4.80;1.80;;;;;;;-144.05;74.81;57020.88;5008100;28;20084;-78
2023/11/08 06:20:57;;;;;;;6.05;1.60;;;;;;;-144.05;74.42;57023.00;5013387;28;20026;-77
2023/11/08 06:23:23;;;;;;;7.55;1.55;;;;;;;-144.05;74.69;56984.78;5008777;28;20112;-79
2023/11/08 06:25:49;;;;;;;9.30;1.30;;;;;;;-144.05;74.64;56995.38;5013131;28;20487;-81
2023/11/08 06:28:16;;;;;;;3.38;1.63;;;;;;;-144.05;74.40;56978.41;5012880;28;20026;-78
2023/11/08 06:30:42;;;;;;;5.88;1.70;;;;;;;-144.05;74.48;56999.63;4995040;28;20034;-78
2023/11/08 06:33:08;;;;;;;3.58;1.30;;;;;;;-144.05;74.53;56995.38;4994900;28;20018;-79
2023/11/08 06:35:37;;;;;;;4.45;1.73;;;8.20;99.90;;;-144.05;74.74;56993.25;5012468;28;20082;-77
2023/11/08 06:38:04;;;;;;;3.42;1.30;;;;;;;-144.05;74.34;57001.75;5013390;28;20058;-77
2023/11/08 06:40:30;;;;;;;4.35;1.67;;;;;;;-144.05;74.64;56997.50;5015939;28;20021;-81
2023/11/08 06:42:56;;;;;;;7.20;1.77;;;;;;;-144.05;73.85;56991.13;5015790;28;20109;-77
2023/11/08 06:45:22;;;;;;;6.50;1.88;;;;;;;-144.05;73.78;57008.13;5008614;28;20023;-76
2023/11/08 06:47:49;;;;;;;5.15;1.65;;;;;;;-144.05;73.94;56993.25;5012891;28;20064;-80
2023/11/08 06:50:15;;;;;;;8.43;1.67;;;;;;;-144.05;73.85;56993.25;5013163;28;20018;-76
2023/11/08 06:52:41;;;;;;;4.97;1.35;;;;;;;-144.05;73.46;56978.41;5012602;28;20029;-76
2023/11/08 06:55:08;;;;;;;5.18;1.60;;;;;;;-144.05;73.42;57012.38;5012815;28;20062;-78
2023/11/08 06:57:34;;;;;;;8.50;1.60;;;;;;;-144.05;73.23;57001.75;5012778;28;20499;-80
2023/11/08 07:00:01;;;;;;;7.57;2.03;;;;;;;-144.05;73.42;56995.38;5012774;28;20034;-78
2023/11/08 07:02:28;;;;;;;6.60;1.30;;;;;;;-144.05;73.18;56976.28;5013102;28;20022;-81
2023/11/08 07:04:54;;;;;;;4.07;1.50;;;;;;;-144.05;72.87;56989.00;5012085;28;20080;-77
2023/11/08 07:07:21;;;;;;;10.02;1.38;;;;;;;-144.05;73.03;56963.53;5012723;28;20434;-79
2023/11/08 07:09:50;;;;;;;6.18;1.52;;;;;;;-144.05;72.93;56995.38;5009167;28;20029;-80
2023/11/08 07:12:16;;;;;;;5.15;1.98;;;;;;;-144.05;72.95;57008.13;5003990;28;20033;-79
2023/11/08 07:14:42;;;;;;;6.65;1.75;;;;;;;-144.05;72.71;57012.38;5016130;28;20032;-78
2023/11/08 07:17:08;;;;;;;5.20;2.65;;;;;;;-144.05;73.00;56982.66;5016815;28;20026;-80
2023/11/08 07:19:35;;;;;;;8.50;2.40;;;;;;;-144.05;72.63;56969.91;5016450;28;20025;-79
2023/11/08 07:22:01;;;;;;;6.55;1.80;;;;;;;-144.05;72.37;57014.50;5016898;28;20026;-80
2023/11/08 07:24:27;;;;;;;4.35;1.50;;;;;;;-144.05;72.66;57001.75;5012218;28;20117;-82
2023/11/08 07:26:53;;;;;;;8.98;1.45;;;;;;;-144.05;72.31;56969.91;5015571;28;20437;-79
2023/11/08 07:29:20;;;;;;;6.75;2.00;;;;;;;-144.05;72.07;56957.16;5012510;28;20026;-79
2023/11/08 07:31:46;;;;;;;7.28;1.70;;;;;;;-144.05;71.74;56963.53;5015712;28;20022;-77
2023/11/08 07:34:12;;;;;;;6.47;1.67;;;;;;;-144.05;71.41;56982.66;5016108;28;20025;-80
2023/11/08 07:36:39;;;;;;;6.03;1.60;;;9.00;99.90;;;-144.05;71.13;56957.16;4998969;28;20030;-79
2023/11/08 07:39:06;;;;;;;8.27;1.80;;;;;;;-144.05;71.26;56935.91;5016593;28;20026;-81
2023/11/08 07:41:33;;;;;;;5.47;1.60;;;;;;;-144.05;70.40;56982.66;5016952;28;20017;-79
2023/11/08 07:44:00;;;;;;;10.77;2.08;;;;;;;-144.05;69.87;56929.53;5016695;28;20030;-79
2023/11/08 07:46:27;;;;;;;8.02;2.08;;;;;;;-144.05;69.88;57001.75;5012204;28;20032;-75
2023/11/08 07:48:55;;;;;;;7.38;2.58;;;;;;;-144.05;69.95;56974.16;5016838;28;20175;-77
2023/11/08 07:51:25;;;;;;;5.45;1.65;;;9.30;99.90;;;-144.05;69.72;56986.91;5015885;28;20100;-79
2023/11/08 07:53:52;;;;;;;2.92;1.35;;;;;;;-144.05;70.15;56957.16;5015697;28;20018;-79
2023/11/08 07:56:18;;;;;;;8.55;2.63;;;;;;;-144.05;70.17;56967.78;5012073;28;20089;-77
2023/11/08 07:58:44;;;;;;;9.70;1.80;;;;;;;-144.05;69.96;56980.53;5015709;28;20029;-78
2023/11/08 08:01:11;;;;;;;5.45;1.65;;;;;;;-144.05;70.02;56967.78;5016094;28;20093;-81
2023/11/08 08:03:38;;;;;;;7.93;2.00;;;;;;;-144.05;69.82;57003.88;5015646;28;20053;-79
2023/11/08 08:06:04;;;;;;;6.00;2.05;;;9.20;99.90;;;-144.05;69.04;56984.78;5015845;28;20026;-81
2023/11/08 08:08:30;;;;;;;5.68;1.88;;;9.50;99.90;;;-144.05;68.88;56995.38;5016128;28;20711;-78
2023/11/08 08:10:57;;;;;;;8.00;1.58;;;;;;;-144.05;69.02;56999.63;5015322;28;20483;-78
2023/11/08 08:13:23;;;;;;;6.95;1.73;;;;;;;-144.05;69.13;56969.91;5009090;28;20484;-82
2023/11/08 08:15:49;;;;;;;5.95;2.13;;;;;;;-144.05;69.22;56974.16;5015964;28;20058;-77
2023/11/08 08:18:16;;;;;;;5.35;1.60;;;;;;;-144.05;68.12;56948.66;5017066;28;20068;-79
2023/11/08 08:20:42;;;;;;;3.88;1.35;;;;;;;-144.05;67.41;56944.41;5017248;28;20065;-78
2023/11/08 08:23:09;;;;;;;6.78;1.33;;;;;;;-144.05;66.87;56974.16;5016544;28;20646;-81
2023/11/08 08:25:42;;;;;;;7.55;1.48;;;10.20;99.90;;;-144.05;66.65;56995.38;5015961;28;20030;-77
2023/11/08 08:28:08;;;;;;;4.03;1.50;;;;;;;-144.05;66.49;56955.03;5016904;28;20038;-78
2023/11/08 08:30:36;;;;;;;5.65;1.48;;;;;;;-144.05;66.38;56976.28;5016996;28;20065;-78
2023/11/08 08:33:05;;;;;;;9.43;1.80;;;;;;;-144.05;65.60;56974.16;5000359;28;20057;-79
2023/11/08 08:35:32;;;;;;;5.80;1.65;;;;;;;-144.05;65.71;56978.41;5017875;28;20083;-80
2023/11/08 08:37:59;;;;;;;5.07;1.52;;;;;;;-144.05;66.48;56959.28;5017043;28;20056;-79
2023/11/08 08:40:25;;;;;;;7.75;1.55;;;;;;;-144.05;65.90;56986.91;4999400;28;20029;-78
2023/11/08 08:42:52;;;;;;;3.50;1.48;;;;;;;-144.05;66.09;56961.41;5017553;28;20017;-78
2023/11/08 08:45:18;;;;;;;8.23;1.60;;;;;;;-144.05;65.87;56952.91;5016844;28;20553;-76
2023/11/08 08:47:45;;;;;;;5.53;1.75;;;;;;;-144.05;64.39;56963.53;5016542;28;20029;-81
2023/11/08 08:50:12;;;;;;;7.25;1.30;;;8.30;99.90;;;-144.05;64.21;56974.16;5012202;28;20056;-77
2023/11/08 08:52:42;;;;;;;7.18;1.73;;;;;;;-144.05;63.61;56963.53;5017103;28;20022;-80
2023/11/08 08:55:14;;;;;;;5.75;1.85;;;7.70;99.90;;;-144.05;63.69;56959.28;5010970;28;20030;-80
2023/11/08 08:57:46;;;;;;;3.03;1.40;;;7.40;99.90;;;-144.05;64.86;56935.91;5015701;28;20060;-78
2023/11/08 09:00:18;;;;;;;8.50;1.60;;;10.30;99.90;;;-144.05;65.82;56974.16;5015874;28;20486;-78
2023/11/08 09:02:45;;;;;;;6.40;2.00;;;;;;;-144.05;65.85;56938.03;5015314;28;20017;-78
2023/11/08 09:05:11;;;;;;;4.13;1.35;;;;;;;-144.05;64.92;56893.44;5015343;28;20034;-81
2023/11/08 09:07:38;;;;;;;12.55;1.70;;;;;;;-144.05;63.76;56972.03;4997764;28;20022;-80
2023/11/08 09:10:06;;;;;;;9.32;1.50;;;7.20;99.90;;;-144.05;63.69;56965.66;5015213;28;20026;-79
2023/11/08 09:12:32;;;;;;;5.43;1.30;;;;;;;-144.05;64.02;56935.91;5011627;28;20022;-78
2023/11/08 09:14:59;;;;;;;4.28;1.27;;;;;;;-144.05;63.75;56967.78;5001675;28;20038;-81
2023/11/08 09:17:25;;;;;;;5.78;1.50;;;7.10;99.90;;;-144.05;63.09;56967.78;5027927;28;20018;-79
2023/11/08 09:19:51;;;;;;;3.60;1.25;;;;;;;-144.05;62.47;56986.91;5029721;28;20194;-80
2023/11/08 09:22:17;;;;;;;6.72;1.30;;;;;;;-144.05;62.53;56974.16;5028141;28;20021;-80
2023/11/08 09:24:43;;;;;;;5.22;1.42;;;;;;;-144.05;62.54;56980.53;4990459;28;20380;-80
2023/11/08 09:27:11;;;;;;;7.85;1.50;;;;;;;-144.05;63.06;56967.78;5011044;28;20108;-80
2023/11/08 09:29:37;;;;;;;9.60;1.80;;;8.50;99.90;;;-144.05;62.04;56969.91;5014752;28;20032;-79
2023/11/08 09:32:04;;;;;;;3.22;1.35;;;8.30;99.90;;;-144.05;61.07;56935.91;4996843;28;20065;-79
2023/11/08 09:34:34;;;;;;;5.13;1.10;;;11.40;99.90;;;-144.05;60.46;56984.78;5011422;28;20104;-80
2023/11/08 09:37:01;;;;;;;16.95;1.83;;;8.10;99.90;;;-144.05;59.24;56961.41;5013913;28;20080;-79
2023/11/08 09:39:29;;;;;;;11.93;1.75;;;11.30;99.90;;;-144.05;59.95;56935.91;5014856;28;20097;-80
2023/11/08 09:41:56;;;;;;;5.70;1.55;;;11.30;99.90;;;-144.05;60.46;56991.13;5014497;28;20056;-81
2023/11/08 09:44:24;;;;;;;6.82;1.30;;;7.10;99.90;;;-144.05;60.81;56942.28;5013838;28;20057;-80
2023/11/08 09:46:56;;;;;;;5.75;1.10;;;11.00;99.90;;;-144.05;60.33;56991.13;5014435;28;20060;-77
2023/11/08 09:49:24;;;;;;;6.10;1.20;;;15.10;99.90;;;-144.05;60.96;56982.66;5014312;28;20028;-80
2023/11/08 09:51:54;;;;;;;5.95;1.50;;;8.00;99.90;;;-144.05;61.96;56959.28;5013714;28;20026;-80
2023/11/08 09:54:21;;;;;;;4.13;1.00;;;;;;;-144.05;61.61;56978.41;5013494;28;20193;-80
2023/11/08 09:56:47;;;;;;;3.25;0.98;;;;;;;-144.05;61.33;56967.78;5009342;28;20032;-79
2023/11/08 09:59:16;;;;;;;7.07;1.23;;;15.60;99.90;;;-144.05;61.42;56959.28;5013351;28;20053;-80
2023/11/08 10:01:45;;;;;;;7.32;1.40;;;8.10;99.90;;;-144.05;60.25;56942.28;5010377;28;20029;-80
2023/11/08 10:04:16;;;;;;;6.82;0.98;;;11.70;99.90;;;-144.05;58.76;56963.53;5011407;28;20033;-80
2023/11/08 10:06:46;;;;;;;5.88;1.30;;;8.00;99.90;;;-144.05;58.52;56961.41;4995099;28;20065;-81
2023/11/08 10:09:13;;;;;;;12.20;1.90;;;;;;;-144.05;58.56;56972.03;5013749;28;20034;-82
2023/11/08 10:11:42;;;;;;;4.60;1.35;;;12.30;99.90;;;-144.05;58.54;56938.03;5009818;28;20059;-81
2023/11/08 10:14:08;;;;;;;8.00;1.38;;;8.30;99.90;;;-144.05;58.89;56948.66;5013608;28;20038;-79
2023/11/08 10:16:48;;;;;;;4.93;1.65;;;8.40;99.90;;;-144.05;58.58;56972.03;5013118;28;20038;-80
2023/11/08 10:19:14;;;;;;;7.15;1.38;;;;;;;-144.05;58.83;56933.78;5010545;28;20022;-79
2023/11/08 10:21:48;;;;;;;6.13;1.02;;;8.40;99.90;;;-144.05;58.02;56965.66;5012547;28;20088;-78
2023/11/08 10:24:16;;;;;;;6.20;1.83;;;;;;;-144.05;57.54;56935.91;5013394;28;20376;-80
2023/11/08 10:26:43;;;;;;;9.15;1.60;;;11.50;99.90;;;-144.05;57.47;56955.03;5013167;28;20499;-78
2023/11/08 10:29:13;;;;;;;4.55;1.15;;;;;;;-144.05;56.32;56976.28;5014222;28;20041;-77
2023/11/08 10:31:42;;;;;;;5.88;1.70;;;15.90;99.90;;;-144.05;55.53;56955.03;5010742;28;20018;-78
2023/11/08 10:34:15;;;;;;;4.68;0.90;;;8.10;99.90;;;-144.05;55.04;56942.28;4996801;28;20037;-80
2023/11/08 10:36:42;;;;;;;6.45;1.27;;;8.50;99.90;;;-144.05;55.03;56980.53;5014587;28;20568;-81
2023/11/08 10:39:13;;;;;;;5.47;1.35;;;12.20;99.90;;;-144.05;54.84;56916.81;5013436;28;20025;-79
2023/11/08 10:41:46;;;;;;;5.90;1.30;;;12.60;99.90;;;-144.05;54.29;56948.66;5011914;28;20026;-79
2023/11/08 10:44:14;;;;;;;6.68;1.33;;;8.80;99.90;;;-144.05;52.96;56965.66;5012587;28;20036;-80
2023/11/08 10:46:43;;;;;;;6.07;1.02;;;12.80;99.90;;;-144.05;52.45;56944.41;5013113;28;20402;-78
2023/11/08 10:49:10;;;;;;;7.07;1.00;;;8.30;99.90;;;-144.05;52.21;56948.66;5010950;28;20483;-77
2023/11/08 10:51:44;;;;;;;5.63;1.15;;;9.10;99.90;;;-144.05;51.32;56965.66;5011397;28;20057;-82
2023/11/08 10:54:11;;;;;;;9.18;1.20;;;;;;;-144.05;52.36;56972.03;5012973;28;20089;-80
2023/11/08 10:56:43;;;;;;;7.55;1.10;;;9.50;99.90;;;-144.05;52.08;56952.91;5012669;28;20021;-80
2023/11/08 10:59:12;;;;;;;4.10;1.40;;;13.30;99.90;;;-144.05;50.05;56946.53;5009781;28;20030;-81
2023/11/08 11:01:42;;;;;;;3.92;1.38;;;9.50;99.90;;;-144.05;50.34;56972.03;5013267;28;20062;-77